Inowroclaw Military Air Base


Codes: EPIR/
Name: Inowroclaw Military Air Base
City:
Country: Poland
Elevation: 259 ft.

Photos at Inowroclaw Military Air Base


   Photos courtesy of SpottingLog. You can add your own sightings and photos by signing up for a free trial today.



No photos found.

Weather at Inowroclaw Military Air Base


Time (UTC)DescriptionTempratureWindCloud coverageVisibilityPressureHumidity
18-Apr-2024 00:00Scattered Clouds3°C4 mph, N36%10000m1010hPa84%
18-Apr-2024 03:00Few Clouds1°C7 mph, NW23%10000m1011hPa91%
18-Apr-2024 06:00Few Clouds3°C7 mph, N17%10000m1013hPa81%
18-Apr-2024 09:00Light Rain5°C9 mph, N64%4660m1013hPa74%
18-Apr-2024 12:00Light Rain8°C9 mph, NW82%10000m1013hPa57%
18-Apr-2024 15:00Light Rain8°C11 mph, N99%10000m1013hPa54%
18-Apr-2024 18:00Broken Clouds4°C4 mph, N82%10000m1013hPa71%
18-Apr-2024 21:00Few Clouds2°C0 mph, NE12%10000m1014hPa84%
19-Apr-2024 00:00Clear Sky1°C4 mph, SW8%10000m1013hPa81%
19-Apr-2024 03:00Clear Sky1°C7 mph, SW10%10000m1012hPa83%
19-Apr-2024 06:00Light Rain5°C9 mph, SW55%10000m1010hPa80%
19-Apr-2024 09:00Overcast Clouds8°C11 mph, W99%10000m1008hPa62%
19-Apr-2024 12:00Light Rain8°C11 mph, SW100%10000m1006hPa71%
19-Apr-2024 15:00Light Rain8°C11 mph, SW100%10000m1004hPa77%
19-Apr-2024 18:00Light Rain6°C9 mph, S100%10000m1003hPa85%
19-Apr-2024 21:00Light Rain5°C9 mph, SW100%10000m1003hPa95%
20-Apr-2024 00:00Light Rain4°C4 mph, SW100%10000m1003hPa95%
20-Apr-2024 03:00Overcast Clouds5°C2 mph, W100%10000m1005hPa95%
20-Apr-2024 06:00Light Rain5°C7 mph, NW100%10000m1007hPa90%
20-Apr-2024 09:00Light Rain4°C11 mph, N100%0m1009hPa97%
20-Apr-2024 12:00Light Rain3°C16 mph, N100%97m1012hPa97%
20-Apr-2024 15:00Snow3°C16 mph, N100%0m1015hPa97%
20-Apr-2024 18:00Light Snow2°C13 mph, N100%0m1018hPa97%
20-Apr-2024 21:00Light Rain1°C9 mph, N99%10000m1020hPa96%
21-Apr-2024 00:00Light Snow1°C11 mph, N99%2419m1021hPa96%
21-Apr-2024 03:00Light Snow1°C9 mph, NW100%486m1022hPa98%
21-Apr-2024 06:00Light Snow1°C11 mph, N100%15m1022hPa99%
21-Apr-2024 09:00Light Snow2°C11 mph, N100%7688m1023hPa95%
21-Apr-2024 12:00Light Rain4°C11 mph, N100%10000m1023hPa86%
21-Apr-2024 15:00Light Rain5°C11 mph, N100%10000m1023hPa85%
21-Apr-2024 18:00Overcast Clouds3°C11 mph, N100%10000m1024hPa89%
21-Apr-2024 21:00Overcast Clouds3°C11 mph, N100%10000m1023hPa91%
22-Apr-2024 00:00Overcast Clouds2°C11 mph, N100%10000m1022hPa97%
22-Apr-2024 03:00Overcast Clouds4°C11 mph, N100%10000m1022hPa95%
22-Apr-2024 06:00Overcast Clouds4°C11 mph, N100%10000m1021hPa91%
22-Apr-2024 09:00Overcast Clouds6°C16 mph, N100%10000m1021hPa85%
22-Apr-2024 12:00Overcast Clouds7°C13 mph, N100%10000m1021hPa79%
22-Apr-2024 15:00Overcast Clouds8°C13 mph, N100%10000m1020hPa65%
22-Apr-2024 18:00Overcast Clouds4°C9 mph, N100%10000m1021hPa73%
22-Apr-2024 21:00Overcast Clouds2°C11 mph, NW100%10000m1021hPa77%